createdAt,value
2019-05-05T00:00:17.483Z,3.69
2019-05-05T00:01:17.471Z,3.60
2019-05-05T00:02:17.461Z,3.52
2019-05-05T00:03:17.492Z,3.59
2019-05-05T00:04:17.466Z,3.64
2019-05-05T00:05:17.428Z,3.49
2019-05-05T00:06:17.419Z,3.64
2019-05-05T00:07:17.453Z,3.63
2019-05-05T00:08:17.397Z,3.60
2019-05-05T00:09:17.385Z,3.66
2019-05-05T00:10:17.374Z,3.56
2019-05-05T00:11:17.366Z,3.60
2019-05-05T00:12:17.354Z,3.64
2019-05-05T00:13:17.383Z,3.64
2019-05-05T00:14:17.329Z,3.63
2019-05-05T00:15:17.355Z,3.60
2019-05-05T00:16:17.354Z,3.62
2019-05-05T00:17:17.294Z,3.56
2019-05-05T00:18:17.285Z,3.60
2019-05-05T00:19:29.778Z,3.60
2019-05-05T00:20:18.261Z,3.67
2019-05-05T00:21:17.250Z,3.56
2019-05-05T00:22:17.289Z,3.55
2019-05-05T00:23:17.228Z,3.55
2019-05-05T00:24:17.219Z,3.54
2019-05-05T00:25:17.207Z,3.69
2019-05-05T00:26:17.238Z,3.56
2019-05-05T00:27:17.182Z,3.59
2019-05-05T00:28:17.175Z,3.60
2019-05-05T00:29:17.164Z,3.59
2019-05-05T00:30:17.190Z,3.62
2019-05-05T00:31:17.179Z,3.60
2019-05-05T00:32:17.166Z,3.60
2019-05-05T00:33:17.120Z,3.64
2019-05-05T00:34:17.105Z,3.72
2019-05-05T00:35:17.098Z,3.73
2019-05-05T00:36:17.085Z,3.72
2019-05-05T00:37:17.114Z,3.66
2019-05-05T00:38:17.100Z,3.69
2019-05-05T00:39:17.058Z,3.60
2019-05-05T00:40:17.041Z,3.62
2019-05-05T00:41:17.029Z,3.60
2019-05-05T00:42:17.019Z,3.62
2019-05-05T00:43:17.059Z,3.63
2019-05-05T00:44:16.996Z,3.62
2019-05-05T00:45:16.997Z,3.59
2019-05-05T00:46:16.973Z,3.64
2019-05-05T00:47:16.969Z,3.64
2019-05-05T00:48:16.992Z,3.54
2019-05-05T00:49:16.939Z,3.54
2019-05-05T00:50:16.931Z,3.60
2019-05-05T00:51:16.962Z,3.69
2019-05-05T00:52:16.910Z,3.66
2019-05-05T00:53:16.896Z,3.74
2019-05-05T00:54:16.885Z,3.66
2019-05-05T00:55:16.876Z,3.80
2019-05-05T00:56:16.861Z,3.76
2019-05-05T00:57:16.890Z,3.84
2019-05-05T00:58:16.841Z,3.85
2019-05-05T00:59:16.827Z,3.85
2019-05-05T01:00:16.821Z,3.78
2019-05-05T01:01:16.804Z,3.82
2019-05-05T01:02:16.841Z,3.76
2019-05-05T01:03:16.785Z,3.84
2019-05-05T01:04:16.773Z,3.70
2019-05-05T01:05:16.760Z,3.73
2019-05-05T01:06:16.752Z,3.67
2019-05-05T01:07:16.781Z,3.78
2019-05-05T01:08:16.770Z,3.73
2019-05-05T01:09:16.717Z,3.62
2019-05-05T01:10:16.707Z,3.59
2019-05-05T01:11:16.698Z,3.63
2019-05-05T01:12:16.687Z,3.59
2019-05-05T01:13:16.672Z,3.60
2019-05-05T01:14:16.707Z,3.59
2019-05-05T01:15:16.656Z,3.59
2019-05-05T01:16:16.687Z,3.64
2019-05-05T01:17:16.629Z,3.55
2019-05-05T01:18:16.622Z,3.69
2019-05-05T01:19:16.613Z,3.69
2019-05-05T01:20:16.637Z,3.66
2019-05-05T01:21:16.584Z,3.54
2019-05-05T01:22:16.577Z,3.56
2019-05-05T01:23:16.604Z,3.60
2019-05-05T01:24:16.554Z,3.45
2019-05-05T01:25:16.540Z,3.56
2019-05-05T01:26:16.530Z,3.45
2019-05-05T01:27:16.519Z,3.46
2019-05-05T01:28:16.512Z,3.51
2019-05-05T01:29:16.541Z,3.25
2019-05-05T01:30:16.488Z,3.30
2019-05-05T01:31:16.477Z,3.32
2019-05-05T01:32:16.500Z,3.32
2019-05-05T01:33:16.451Z,3.26
2019-05-05T01:34:16.441Z,3.35
2019-05-05T01:35:16.428Z,3.26
2019-05-05T01:36:16.419Z,3.27
2019-05-05T01:37:16.447Z,3.23
2019-05-05T01:38:16.404Z,3.08
2019-05-05T01:39:16.386Z,3.22
2019-05-05T01:40:16.373Z,3.22
2019-05-05T01:41:16.410Z,3.15
2019-05-05T01:42:16.355Z,3.09
2019-05-05T01:43:16.381Z,3.09
2019-05-05T01:44:16.373Z,3.11
2019-05-05T01:45:16.322Z,3.26
2019-05-05T01:46:16.314Z,3.29
2019-05-05T01:47:16.295Z,3.25
2019-05-05T01:48:16.287Z,3.23
2019-05-05T01:49:16.276Z,3.30
2019-05-05T01:50:20.876Z,3.33
2019-05-05T01:51:17.256Z,3.27
2019-05-05T01:52:16.240Z,3.25
2019-05-05T01:53:16.230Z,3.25
2019-05-05T01:54:16.218Z,3.23
2019-05-05T01:55:16.233Z,3.32
2019-05-05T01:56:16.234Z,3.23
2019-05-05T01:57:16.232Z,3.29
2019-05-05T01:58:16.180Z,3.29
2019-05-05T01:59:16.163Z,3.26
2019-05-05T02:00:16.193Z,3.29
2019-05-05T02:01:16.186Z,3.29
2019-05-05T02:02:16.177Z,3.26
2019-05-05T02:03:16.123Z,3.27
2019-05-05T02:04:16.107Z,3.30
2019-05-05T02:05:16.096Z,3.22
2019-05-05T02:06:16.086Z,3.12
2019-05-05T02:07:16.078Z,3.18
2019-05-05T02:08:16.104Z,3.09
2019-05-05T02:09:16.089Z,3.15
2019-05-05T02:10:16.051Z,3.18
2019-05-05T02:11:16.031Z,3.17
2019-05-05T02:12:16.111Z,3.11
2019-05-05T02:13:16.188Z,3.07
2019-05-05T02:14:15.999Z,2.99
2019-05-05T02:15:15.985Z,3.07
2019-05-05T02:16:15.974Z,3.07
2019-05-05T02:17:15.965Z,3.17
2019-05-05T02:18:15.994Z,3.23
2019-05-05T02:19:15.993Z,3.18
2019-05-05T02:20:28.656Z,3.27
2019-05-05T02:21:16.918Z,3.32
2019-05-05T02:22:15.910Z,3.35
2019-05-05T02:23:15.939Z,3.49
2019-05-05T02:24:15.892Z,3.44
2019-05-05T02:25:15.888Z,3.55
2019-05-05T02:26:15.866Z,3.54
2019-05-05T02:27:15.892Z,3.59
2019-05-05T02:28:15.846Z,3.42
2019-05-05T02:29:15.878Z,3.45
2019-05-05T02:30:16.359Z,3.25
2019-05-05T02:31:16.797Z,3.32
2019-05-05T02:32:16.152Z,3.32
2019-05-05T02:33:15.951Z,3.22
2019-05-05T02:34:16.570Z,3.08
2019-05-05T02:35:16.624Z,3.11
2019-05-05T02:36:16.122Z,3.11
2019-05-05T02:37:16.163Z,2.99
2019-05-05T02:38:15.964Z,2.99
2019-05-05T02:39:16.193Z,3.07
2019-05-05T02:40:16.132Z,2.96
2019-05-05T02:41:15.751Z,3.08
2019-05-05T02:42:15.687Z,3.09
2019-05-05T02:43:15.685Z,3.08
2019-05-05T02:44:15.745Z,2.96
2019-05-05T02:45:15.795Z,2.87
2019-05-05T02:46:15.643Z,2.87
2019-05-05T02:47:15.816Z,2.82
2019-05-05T02:48:15.744Z,2.82
2019-05-05T02:49:15.610Z,2.81
2019-05-05T02:50:15.706Z,2.86
2019-05-05T02:51:15.630Z,2.69
2019-05-05T02:52:15.577Z,2.81
2019-05-05T02:53:15.572Z,2.82
2019-05-05T02:54:15.557Z,2.71
2019-05-05T02:55:15.591Z,2.72
2019-05-05T02:56:15.533Z,2.68
2019-05-05T02:57:15.602Z,2.65
2019-05-05T02:58:15.509Z,2.63
2019-05-05T02:59:15.544Z,2.66
2019-05-05T03:00:15.487Z,2.66
2019-05-05T03:01:15.479Z,2.63
2019-05-05T03:02:15.467Z,2.60
2019-05-05T03:03:15.453Z,2.63
2019-05-05T03:04:15.490Z,2.63
2019-05-05T03:05:15.440Z,2.60
2019-05-05T03:06:15.424Z,2.50
2019-05-05T03:07:15.410Z,2.42
2019-05-05T03:08:15.422Z,2.43
2019-05-05T03:09:15.434Z,2.42
2019-05-05T03:10:15.377Z,2.45
2019-05-05T03:11:15.370Z,2.43
2019-05-05T03:12:15.355Z,2.42
2019-05-05T03:13:15.345Z,2.40
2019-05-05T03:14:15.332Z,2.35
2019-05-05T03:15:15.366Z,2.42
2019-05-05T03:16:15.353Z,2.47
2019-05-05T03:17:15.301Z,2.47
2019-05-05T03:18:15.288Z,2.50
2019-05-05T03:19:15.278Z,2.50
2019-05-05T03:20:15.267Z,2.53
2019-05-05T03:21:15.254Z,2.63
2019-05-05T03:22:15.291Z,2.76
2019-05-05T03:23:15.236Z,2.81
2019-05-05T03:24:15.221Z,2.82
2019-05-05T03:25:15.258Z,2.82
2019-05-05T03:26:15.202Z,2.82
2019-05-05T03:27:15.193Z,2.71
2019-05-05T03:28:15.220Z,2.76
2019-05-05T03:29:15.166Z,2.63
2019-05-05T03:30:15.589Z,2.61
2019-05-05T03:31:16.271Z,2.63
2019-05-05T03:32:16.335Z,2.48
2019-05-05T03:33:16.207Z,2.50
2019-05-05T03:34:16.347Z,2.47
2019-05-05T03:35:15.101Z,2.47
2019-05-05T03:36:15.090Z,2.48
2019-05-05T03:37:15.119Z,2.45
2019-05-05T03:38:15.070Z,2.51
2019-05-05T03:39:15.057Z,2.58
2019-05-05T03:40:15.055Z,2.69
2019-05-05T03:41:15.036Z,2.75
2019-05-05T03:42:15.024Z,2.75
2019-05-05T03:43:15.053Z,2.69
2019-05-05T03:44:15.000Z,2.60
2019-05-05T03:45:14.989Z,2.60
2019-05-05T03:46:14.990Z,2.57
2019-05-05T03:47:15.021Z,2.50
2019-05-05T03:48:14.958Z,2.45
2019-05-05T03:49:14.947Z,2.43
2019-05-05T03:50:14.936Z,2.30
2019-05-05T03:51:18.825Z,2.35
2019-05-05T03:52:15.956Z,2.30
2019-05-05T03:53:14.902Z,2.29
2019-05-05T03:54:14.931Z,2.40
2019-05-05T03:55:14.884Z,2.50
2019-05-05T03:56:14.874Z,2.37
2019-05-05T03:57:14.858Z,2.45
2019-05-05T03:58:14.846Z,2.53
2019-05-05T03:59:14.879Z,2.61
2019-05-05T04:00:14.827Z,2.75
2019-05-05T04:01:14.816Z,2.71
2019-05-05T04:02:14.845Z,2.75
2019-05-05T04:03:14.795Z,2.63
2019-05-05T04:04:14.779Z,2.66
2019-05-05T04:05:14.807Z,2.66
2019-05-05T04:06:14.765Z,2.78
2019-05-05T04:07:14.789Z,2.81
2019-05-05T04:08:14.739Z,2.86
2019-05-05T04:09:14.731Z,2.84
2019-05-05T04:10:14.756Z,2.93
2019-05-05T04:11:14.703Z,2.94
2019-05-05T04:12:14.694Z,2.96
2019-05-05T04:13:14.682Z,2.97
2019-05-05T04:14:14.678Z,2.94
2019-05-05T04:15:14.702Z,3.00
2019-05-05T04:16:14.648Z,3.09
2019-05-05T04:17:14.638Z,3.11
2019-05-05T04:18:14.703Z,3.23
2019-05-05T04:19:14.615Z,3.25
2019-05-05T04:20:14.603Z,3.32
2019-05-05T04:21:14.652Z,3.12
2019-05-05T04:22:14.627Z,3.35
2019-05-05T04:23:14.617Z,3.33
2019-05-05T04:24:14.688Z,3.35
2019-05-05T04:25:14.549Z,3.41
2019-05-05T04:26:14.537Z,3.42
2019-05-05T04:27:14.820Z,3.37
2019-05-05T04:28:14.514Z,3.32
2019-05-05T04:29:14.548Z,3.35
2019-05-05T04:30:14.545Z,3.26
2019-05-05T04:31:14.482Z,3.26
2019-05-05T04:32:14.470Z,3.26
2019-05-05T04:33:14.500Z,3.20
2019-05-05T04:34:14.452Z,3.18
2019-05-05T04:35:14.453Z,3.07
2019-05-05T04:36:14.616Z,3.18
2019-05-05T04:37:15.073Z,3.14
2019-05-05T04:38:14.412Z,3.12
2019-05-05T04:39:14.538Z,3.11
2019-05-05T04:40:14.941Z,3.14
2019-05-05T04:41:14.420Z,3.11
2019-05-05T04:42:14.366Z,3.14
2019-05-05T04:43:14.534Z,3.07
2019-05-05T04:44:14.932Z,2.96
2019-05-05T04:45:14.872Z,3.02
2019-05-05T04:46:14.356Z,3.02
2019-05-05T04:47:14.554Z,3.02
2019-05-05T04:48:14.317Z,3.00
2019-05-05T04:49:14.282Z,2.96
2019-05-05T04:50:15.594Z,3.00
2019-05-05T04:51:14.263Z,2.96
2019-05-05T04:52:14.420Z,2.87
2019-05-05T04:53:14.240Z,2.82
2019-05-05T04:54:14.289Z,2.90
2019-05-05T04:55:14.255Z,2.93
2019-05-05T04:56:14.206Z,2.86
2019-05-05T04:57:14.946Z,2.96
2019-05-05T04:58:14.182Z,2.84
2019-05-05T04:59:14.455Z,2.82
2019-05-05T05:00:14.228Z,2.79
2019-05-05T05:01:14.149Z,2.76
2019-05-05T05:02:14.488Z,2.84
2019-05-05T05:03:14.128Z,2.84
2019-05-05T05:04:14.162Z,3.04
2019-05-05T05:05:14.578Z,2.99
2019-05-05T05:06:14.717Z,3.05
2019-05-05T05:07:14.129Z,3.11
2019-05-05T05:08:14.114Z,3.27
2019-05-05T05:09:14.638Z,3.32
2019-05-05T05:10:14.055Z,3.32
2019-05-05T05:11:14.326Z,3.36
2019-05-05T05:12:14.593Z,3.45
2019-05-05T05:13:14.020Z,3.60
2019-05-05T05:14:14.455Z,3.66
2019-05-05T05:15:14.631Z,3.85
2019-05-05T05:16:14.072Z,3.80
2019-05-05T05:17:14.182Z,3.85
2019-05-05T05:18:14.751Z,3.85
2019-05-05T05:19:13.994Z,3.81
2019-05-05T05:20:14.206Z,3.87
2019-05-05T05:21:14.686Z,3.99
2019-05-05T05:22:13.920Z,3.99
2019-05-05T05:23:14.229Z,4.08
2019-05-05T05:24:14.679Z,4.05
2019-05-05T05:25:13.931Z,4.21
2019-05-05T05:26:14.066Z,4.26
2019-05-05T05:27:13.964Z,4.34
2019-05-05T05:28:14.476Z,4.23
2019-05-05T05:29:15.086Z,4.34
2019-05-05T05:30:13.990Z,4.28
2019-05-05T05:31:14.125Z,4.36
2019-05-05T05:32:15.563Z,4.36
2019-05-05T05:33:14.955Z,4.43
2019-05-05T05:34:14.826Z,4.45
2019-05-05T05:35:14.213Z,4.46
2019-05-05T05:36:14.429Z,4.38
2019-05-05T05:37:13.757Z,4.20
2019-05-05T05:38:14.168Z,4.21
2019-05-05T05:39:14.028Z,4.31
2019-05-05T05:40:14.406Z,4.35
2019-05-05T05:41:13.826Z,4.57
2019-05-05T05:42:13.823Z,4.53
2019-05-05T05:43:13.979Z,4.66
2019-05-05T05:44:14.077Z,4.78
2019-05-05T05:45:14.547Z,4.88
2019-05-05T05:46:13.708Z,5.03
2019-05-05T05:47:14.155Z,5.01
2019-05-05T05:48:14.376Z,5.06
2019-05-05T05:49:13.623Z,5.03
2019-05-05T05:50:14.325Z,5.03
2019-05-05T05:51:14.653Z,4.97
2019-05-05T05:52:19.085Z,4.98
2019-05-05T05:53:14.581Z,4.98
2019-05-05T05:54:14.177Z,5.04
2019-05-05T05:55:14.598Z,5.12
2019-05-05T05:56:13.616Z,5.06
2019-05-05T05:57:13.710Z,5.03
2019-05-05T05:58:14.165Z,4.98
2019-05-05T05:59:14.140Z,4.91
2019-05-05T06:00:14.494Z,4.91
2019-05-05T06:01:14.713Z,4.86
2019-05-05T06:02:15.593Z,4.88
2019-05-05T06:03:14.125Z,4.89
2019-05-05T06:04:14.484Z,4.96
2019-05-05T06:05:14.759Z,5.04
2019-05-05T06:06:13.865Z,4.94
2019-05-05T06:07:14.241Z,4.94
2019-05-05T06:08:14.187Z,4.86
2019-05-05T06:09:14.859Z,5.06
2019-05-05T06:10:22.121Z,5.06
2019-05-05T06:11:14.378Z,5.07
2019-05-05T06:12:14.155Z,5.11
2019-05-05T06:13:15.279Z,5.07
2019-05-05T06:14:14.561Z,5.19
2019-05-05T06:15:14.215Z,5.34
2019-05-05T06:16:14.562Z,5.37
2019-05-05T06:17:13.577Z,5.34
2019-05-05T06:18:13.814Z,5.36
2019-05-05T06:19:14.087Z,5.40
2019-05-05T06:20:14.525Z,5.40
2019-05-05T06:21:13.763Z,5.43
2019-05-05T06:22:15.165Z,5.37
2019-05-05T06:23:14.830Z,5.36
2019-05-05T06:24:13.674Z,5.18
2019-05-05T06:25:15.860Z,5.12
2019-05-05T06:26:15.223Z,5.29
2019-05-05T06:27:14.287Z,5.27
2019-05-05T06:28:14.508Z,5.34
2019-05-05T06:29:14.605Z,5.40
2019-05-05T06:30:13.814Z,5.47
2019-05-05T06:31:14.001Z,5.66
2019-05-05T06:32:14.608Z,5.73
2019-05-05T06:33:13.785Z,5.79
2019-05-05T06:34:13.966Z,5.70
2019-05-05T06:35:13.857Z,5.69
2019-05-05T06:36:14.174Z,5.66
2019-05-05T06:37:14.482Z,5.70
2019-05-05T06:38:13.681Z,5.70
2019-05-05T06:39:13.633Z,5.69
2019-05-05T06:40:13.915Z,5.75
2019-05-05T06:41:14.690Z,5.84
2019-05-05T06:42:13.625Z,5.90
2019-05-05T06:43:13.907Z,5.90
2019-05-05T06:44:14.213Z,5.80
2019-05-05T06:45:14.423Z,5.77
2019-05-05T06:46:14.603Z,5.73
2019-05-05T06:47:13.519Z,5.70
2019-05-05T06:48:13.580Z,5.69
2019-05-05T06:49:13.623Z,5.66
2019-05-05T06:50:13.951Z,5.65
2019-05-05T06:51:14.055Z,5.61
2019-05-05T06:52:14.279Z,5.52
2019-05-05T06:53:13.580Z,5.62
2019-05-05T06:54:13.724Z,5.57
2019-05-05T06:55:14.079Z,5.59
2019-05-05T06:56:14.633Z,5.66
2019-05-05T06:57:13.715Z,5.52
2019-05-05T06:58:13.683Z,5.41
2019-05-05T06:59:13.698Z,5.37
2019-05-05T07:00:13.947Z,5.41
2019-05-05T07:01:14.281Z,5.57
2019-05-05T07:02:14.591Z,5.48
2019-05-05T07:03:13.950Z,5.50
2019-05-05T07:04:13.942Z,5.55
2019-05-05T07:05:14.297Z,5.52
2019-05-05T07:06:14.618Z,5.62
2019-05-05T07:07:14.553Z,5.52
2019-05-05T07:08:13.869Z,5.66
2019-05-05T07:09:13.909Z,5.80
2019-05-05T07:10:14.077Z,5.87
2019-05-05T07:11:14.474Z,6.11
2019-05-05T07:12:13.857Z,6.06
2019-05-05T07:13:14.021Z,6.13
2019-05-05T07:14:14.298Z,6.27
2019-05-05T07:15:14.549Z,6.16
2019-05-05T07:16:14.734Z,6.13
2019-05-05T07:17:14.072Z,6.08
2019-05-05T07:18:14.289Z,6.21
2019-05-05T07:19:14.597Z,6.08
2019-05-05T07:20:13.566Z,6.09
2019-05-05T07:21:14.213Z,6.15
2019-05-05T07:22:14.073Z,6.16
2019-05-05T07:23:14.491Z,6.11
2019-05-05T07:24:14.537Z,6.02
2019-05-05T07:25:13.767Z,6.06
2019-05-05T07:26:14.460Z,6.06
2019-05-05T07:27:13.806Z,5.97
2019-05-05T07:28:14.517Z,5.94
2019-05-05T07:29:15.293Z,6.05
2019-05-05T07:30:13.768Z,5.88
2019-05-05T07:31:14.306Z,5.80
2019-05-05T07:32:14.143Z,5.82
2019-05-05T07:33:14.723Z,5.76
2019-05-05T07:34:13.683Z,5.75
2019-05-05T07:35:14.455Z,5.75
2019-05-05T07:36:14.547Z,5.76
2019-05-05T07:37:14.359Z,5.80
2019-05-05T07:38:13.822Z,5.87
2019-05-05T07:39:14.368Z,5.90
2019-05-05T07:40:13.558Z,5.87
2019-05-05T07:41:14.096Z,6.03
2019-05-05T07:42:13.710Z,5.97
2019-05-05T07:43:14.492Z,6.12
2019-05-05T07:44:25.884Z,6.06
2019-05-05T07:45:22.104Z,6.08
2019-05-05T07:46:13.639Z,6.12
2019-05-05T07:47:14.454Z,6.05
2019-05-05T07:48:13.874Z,6.08
2019-05-05T07:49:13.851Z,6.13
2019-05-05T07:50:26.463Z,6.16
2019-05-05T07:51:14.182Z,6.16
2019-05-05T07:52:14.873Z,6.19
2019-05-05T07:53:17.529Z,6.21
2019-05-05T07:54:14.464Z,6.37
2019-05-05T07:55:14.254Z,6.52
2019-05-05T07:56:14.291Z,6.63
2019-05-05T07:57:14.486Z,6.64
2019-05-05T07:58:13.929Z,6.61
2019-05-05T07:59:14.401Z,6.60
2019-05-05T08:00:12.182Z,6.49
2019-05-05T08:01:14.087Z,6.46
2019-05-05T08:02:14.422Z,6.61
2019-05-05T08:03:14.225Z,6.67
2019-05-05T08:04:13.696Z,6.63
2019-05-05T08:05:14.111Z,6.57
2019-05-05T08:06:14.321Z,6.63
2019-05-05T08:07:12.107Z,6.63
2019-05-05T08:08:13.876Z,6.49
2019-05-05T08:09:12.080Z,6.49
2019-05-05T08:10:13.695Z,6.46
2019-05-05T08:11:12.058Z,6.61
2019-05-05T08:12:13.709Z,6.61
2019-05-05T08:13:14.179Z,6.63
2019-05-05T08:14:14.375Z,6.52
2019-05-05T08:15:12.015Z,6.45
2019-05-05T08:16:13.996Z,6.37
2019-05-05T08:17:11.993Z,6.35
2019-05-05T08:18:13.854Z,6.24
2019-05-05T08:19:13.795Z,6.15
2019-05-05T08:20:14.178Z,6.15
2019-05-05T08:21:13.625Z,6.15
2019-05-05T08:22:14.018Z,6.28
2019-05-05T08:23:28.010Z,6.30
2019-05-05T08:24:13.952Z,6.35
2019-05-05T08:25:11.961Z,6.31
2019-05-05T08:26:13.700Z,6.30
2019-05-05T08:27:11.881Z,6.43
2019-05-05T08:28:11.884Z,6.42
2019-05-05T08:29:13.643Z,6.37
2019-05-05T08:30:13.974Z,6.50
2019-05-05T08:31:11.881Z,6.61
2019-05-05T08:32:13.606Z,6.75
2019-05-05T08:33:13.910Z,6.79
2019-05-05T08:34:11.809Z,6.81
2019-05-05T08:35:11.794Z,6.86
2019-05-05T08:36:11.787Z,6.86
2019-05-05T08:37:11.833Z,7.01
2019-05-05T08:38:13.693Z,7.07
2019-05-05T08:39:11.758Z,7.10
2019-05-05T08:40:11.738Z,7.16
2019-05-05T08:41:13.724Z,7.25
2019-05-05T08:42:11.788Z,7.42
2019-05-05T08:43:13.686Z,7.52
2019-05-05T08:44:11.700Z,7.55
2019-05-05T08:45:13.673Z,7.69
2019-05-05T08:46:14.162Z,7.73
2019-05-05T08:47:13.794Z,7.78
2019-05-05T08:48:14.035Z,7.73
2019-05-05T08:49:13.621Z,7.42
2019-05-05T08:50:13.604Z,7.55
2019-05-05T08:51:11.620Z,7.68
2019-05-05T08:52:11.646Z,7.76
2019-05-05T08:53:13.691Z,7.54
2019-05-05T08:54:11.581Z,7.44
2019-05-05T08:55:13.834Z,7.40
2019-05-05T08:56:11.566Z,7.42
2019-05-05T08:57:11.561Z,7.52
2019-05-05T08:58:11.542Z,7.61
2019-05-05T08:59:11.575Z,7.40
2019-05-05T09:00:13.722Z,7.43
2019-05-05T09:01:11.506Z,7.39
2019-05-05T09:02:11.500Z,7.60
2019-05-05T09:03:13.745Z,7.57
2019-05-05T09:04:11.513Z,7.55
2019-05-05T09:05:11.459Z,7.58
2019-05-05T09:06:13.551Z,7.78
2019-05-05T09:07:13.564Z,7.88
2019-05-05T09:08:13.637Z,8.05
2019-05-05T09:09:11.415Z,8.24
2019-05-05T09:10:11.401Z,8.32
2019-05-05T09:11:13.827Z,8.16
2019-05-05T09:12:13.733Z,8.26
2019-05-05T09:13:11.424Z,8.52
2019-05-05T09:14:11.409Z,8.60
2019-05-05T09:15:13.472Z,8.63
2019-05-05T09:16:11.338Z,8.86
2019-05-05T09:17:13.539Z,8.93
2019-05-05T09:18:11.313Z,8.89
2019-05-05T09:19:11.307Z,8.98
2019-05-05T09:20:13.531Z,8.75
2019-05-05T09:21:13.569Z,8.74
2019-05-05T09:22:11.271Z,8.74
2019-05-05T09:23:11.259Z,8.80
2019-05-05T09:24:11.247Z,8.86
2019-05-05T09:25:13.537Z,8.68
2019-05-05T09:26:11.222Z,8.65
2019-05-05T09:27:11.264Z,8.60
2019-05-05T09:28:11.199Z,8.57
2019-05-05T09:29:11.191Z,8.49
2019-05-05T09:30:11.177Z,8.39
2019-05-05T09:31:11.173Z,8.44
2019-05-05T09:32:11.202Z,8.21
2019-05-05T09:33:11.188Z,8.24
2019-05-05T09:34:11.133Z,8.28
2019-05-05T09:35:11.124Z,8.26
2019-05-05T09:36:13.800Z,8.32
2019-05-05T09:37:11.129Z,8.39
2019-05-05T09:38:11.130Z,8.37
2019-05-05T09:39:11.088Z,8.32
2019-05-05T09:40:11.065Z,8.52
2019-05-05T09:41:11.055Z,8.41
2019-05-05T09:42:11.043Z,8.60
2019-05-05T09:43:11.074Z,8.85
2019-05-05T09:44:11.020Z,8.88
2019-05-05T09:45:11.015Z,9.08
2019-05-05T09:46:10.998Z,9.01
2019-05-05T09:47:10.987Z,9.11
2019-05-05T09:48:11.013Z,9.04
2019-05-05T09:49:10.970Z,9.19
2019-05-05T09:50:10.956Z,9.23
2019-05-05T09:51:10.941Z,9.01
2019-05-05T09:52:10.929Z,8.90
2019-05-05T09:53:10.961Z,8.86
2019-05-05T09:54:14.615Z,8.93
2019-05-05T09:55:13.761Z,8.99
2019-05-05T09:56:10.888Z,9.08
2019-05-05T09:57:10.871Z,9.04
2019-05-05T09:58:10.911Z,9.11
2019-05-05T09:59:10.849Z,9.09
2019-05-05T10:00:10.839Z,9.09
2019-05-05T10:01:10.831Z,9.04
2019-05-05T10:02:10.819Z,9.18
2019-05-05T10:03:10.805Z,9.16
2019-05-05T10:04:10.838Z,9.27
2019-05-05T10:05:10.785Z,9.22
2019-05-05T10:06:10.782Z,9.34
2019-05-05T10:07:10.791Z,9.55
2019-05-05T10:08:10.794Z,9.59
2019-05-05T10:09:10.776Z,9.59
2019-05-05T10:10:10.731Z,9.63
2019-05-05T10:11:10.712Z,9.90
2019-05-05T10:12:10.707Z,10.10
2019-05-05T10:13:10.737Z,10.01
2019-05-05T10:14:10.681Z,9.94
2019-05-05T10:15:10.675Z,10.01
2019-05-05T10:16:10.656Z,9.96
2019-05-05T10:17:10.652Z,10.14
2019-05-05T10:18:10.679Z,10.45
2019-05-05T10:19:10.622Z,10.55
2019-05-05T10:20:10.609Z,10.39
2019-05-05T10:21:10.600Z,10.30
2019-05-05T10:22:10.593Z,10.28
2019-05-05T10:23:10.626Z,10.43
2019-05-05T10:24:10.565Z,10.39
2019-05-05T10:25:10.595Z,10.60
2019-05-05T10:26:10.543Z,10.83
2019-05-05T10:27:10.533Z,11.13
2019-05-05T10:28:10.523Z,11.18
2019-05-05T10:29:10.507Z,11.22
2019-05-05T10:30:10.730Z,11.16
2019-05-05T10:31:10.918Z,11.43
2019-05-05T10:32:10.473Z,11.59
2019-05-05T10:33:10.464Z,11.73
2019-05-05T10:34:10.506Z,11.71
2019-05-05T10:35:10.439Z,11.66
2019-05-05T10:36:10.429Z,11.55
2019-05-05T10:37:10.418Z,11.15
2019-05-05T10:38:10.410Z,10.85
2019-05-05T10:39:10.396Z,10.87
2019-05-05T10:40:10.457Z,10.80
2019-05-05T10:41:10.377Z,10.76
2019-05-05T10:42:10.368Z,10.75
2019-05-05T10:43:10.349Z,10.57
2019-05-05T10:44:10.339Z,10.45
2019-05-05T10:45:10.367Z,10.12
2019-05-05T10:46:10.321Z,9.93
2019-05-05T10:47:10.307Z,9.72
2019-05-05T10:48:10.302Z,9.37
2019-05-05T10:49:10.336Z,9.44
2019-05-05T10:50:10.283Z,9.30
2019-05-05T10:51:10.262Z,9.34
2019-05-05T10:52:10.295Z,9.19
2019-05-05T10:53:10.242Z,9.18
2019-05-05T10:54:10.222Z,9.44
2019-05-05T10:55:10.213Z,9.59
2019-05-05T10:56:10.207Z,9.57
2019-05-05T10:57:10.193Z,9.57
2019-05-05T10:58:10.238Z,9.59
2019-05-05T10:59:10.172Z,9.54
2019-05-05T11:00:13.189Z,9.51
2019-05-05T11:01:11.140Z,9.52
2019-05-05T11:02:10.133Z,9.50
2019-05-05T11:03:10.123Z,9.42
2019-05-05T11:04:10.149Z,9.29
2019-05-05T11:05:10.103Z,9.23
2019-05-05T11:06:10.088Z,9.18
2019-05-05T11:07:10.077Z,9.27
2019-05-05T11:08:10.113Z,9.44
2019-05-05T11:09:10.060Z,9.66
2019-05-05T11:10:10.054Z,9.65
2019-05-05T11:11:10.029Z,9.67
2019-05-05T11:12:10.019Z,9.72
2019-05-05T11:13:10.021Z,9.87
2019-05-05T11:14:10.039Z,10.05
2019-05-05T11:15:09.986Z,10.03
2019-05-05T11:16:09.983Z,10.17
2019-05-05T11:17:09.964Z,10.36
2019-05-05T11:18:09.954Z,10.28
2019-05-05T11:19:09.987Z,10.36
2019-05-05T11:20:09.927Z,10.61
2019-05-05T11:21:09.917Z,10.86
2019-05-05T11:22:09.906Z,10.73
2019-05-05T11:23:09.892Z,10.90
2019-05-05T11:24:09.883Z,10.94
2019-05-05T11:25:09.912Z,11.05
2019-05-05T11:26:09.859Z,10.98
2019-05-05T11:27:09.848Z,10.97
2019-05-05T11:28:10.111Z,11.20
2019-05-05T11:29:09.828Z,11.31
2019-05-05T11:30:09.859Z,11.28
2019-05-05T11:31:09.809Z,11.33
2019-05-05T11:32:09.792Z,11.20
2019-05-05T11:33:09.782Z,10.97
2019-05-05T11:34:09.767Z,10.75
2019-05-05T11:35:09.756Z,10.68
2019-05-05T11:36:09.792Z,10.83
2019-05-05T11:37:09.740Z,10.93
2019-05-05T11:38:09.723Z,10.52
2019-05-05T11:39:09.714Z,10.75
2019-05-05T11:40:09.702Z,10.76
2019-05-05T11:41:09.690Z,10.85
2019-05-05T11:42:09.742Z,10.67
2019-05-05T11:43:09.705Z,10.78
2019-05-05T11:44:09.659Z,10.91
2019-05-05T11:45:09.648Z,11.09
2019-05-05T11:46:09.704Z,11.09
2019-05-05T11:47:09.624Z,11.22
2019-05-05T11:48:09.608Z,11.54
2019-05-05T11:49:09.602Z,11.49
2019-05-05T11:50:09.588Z,11.64
2019-05-05T11:51:09.620Z,11.84
2019-05-05T11:52:09.576Z,11.85
2019-05-05T11:53:09.555Z,11.69
2019-05-05T11:54:09.544Z,11.62
2019-05-05T11:55:12.174Z,11.67
2019-05-05T11:56:09.519Z,11.56
2019-05-05T11:57:09.553Z,11.67
2019-05-05T11:58:09.502Z,11.55
2019-05-05T11:59:09.489Z,11.64
2019-05-05T12:00:09.485Z,11.76
2019-05-05T12:01:09.468Z,11.61
2019-05-05T12:02:09.456Z,11.76
2019-05-05T12:03:09.488Z,11.80
2019-05-05T12:04:09.434Z,11.80
2019-05-05T12:05:09.422Z,11.66
2019-05-05T12:06:09.415Z,11.62
2019-05-05T12:07:09.444Z,11.54
2019-05-05T12:08:09.385Z,11.49
2019-05-05T12:09:09.379Z,11.54
2019-05-05T12:10:09.364Z,11.41
2019-05-05T12:11:09.360Z,11.55
2019-05-05T12:12:09.392Z,11.43
2019-05-05T12:13:09.346Z,11.55
2019-05-05T12:14:09.322Z,11.62
2019-05-05T12:15:09.308Z,11.69
2019-05-05T12:16:09.342Z,11.62
2019-05-05T12:17:09.327Z,11.77
2019-05-05T12:18:09.288Z,11.89
2019-05-05T12:19:09.263Z,11.97
2019-05-05T12:20:09.301Z,12.07
2019-05-05T12:21:09.242Z,12.21
2019-05-05T12:22:09.273Z,12.11
2019-05-05T12:23:09.227Z,12.21
2019-05-05T12:24:09.210Z,12.25
2019-05-05T12:25:22.013Z,12.33
2019-05-05T12:26:10.183Z,12.32
2019-05-05T12:27:09.177Z,12.43
2019-05-05T12:28:09.205Z,12.47
2019-05-05T12:29:09.156Z,12.54
2019-05-05T12:30:09.141Z,12.68
2019-05-05T12:31:09.129Z,12.51
2019-05-05T12:32:12.257Z,12.38
2019-05-05T12:33:10.106Z,12.41
2019-05-05T12:34:09.096Z,12.59
2019-05-05T12:35:09.105Z,12.81
2019-05-05T12:36:09.073Z,12.90
2019-05-05T12:37:09.105Z,12.99
2019-05-05T12:38:09.048Z,13.02
2019-05-05T12:39:09.042Z,13.19
2019-05-05T12:40:09.040Z,12.93
2019-05-05T12:41:09.017Z,12.72
2019-05-05T12:42:09.010Z,12.79
2019-05-05T12:43:09.041Z,12.79
2019-05-05T12:44:08.985Z,12.90
2019-05-05T12:45:08.979Z,13.08
2019-05-05T12:46:08.959Z,13.29
2019-05-05T12:47:08.992Z,13.24
2019-05-05T12:48:08.936Z,13.49
2019-05-05T12:49:08.984Z,13.83
2019-05-05T12:50:08.920Z,13.93
2019-05-05T12:51:08.908Z,14.18
2019-05-05T12:52:08.896Z,14.23
2019-05-05T12:53:08.883Z,13.64
2019-05-05T12:54:08.881Z,13.60
2019-05-05T12:55:08.912Z,13.63
2019-05-05T12:56:08.869Z,13.30
2019-05-05T12:57:08.837Z,12.79
2019-05-05T12:58:08.870Z,12.54
2019-05-05T12:59:08.855Z,12.25
2019-05-05T13:00:08.803Z,11.89
2019-05-05T13:01:08.796Z,11.41
2019-05-05T13:02:08.779Z,11.19
2019-05-05T13:03:08.767Z,10.98
2019-05-05T13:04:08.764Z,10.97
2019-05-05T13:05:08.795Z,10.98
2019-05-05T13:06:09.013Z,10.94
2019-05-05T13:07:08.725Z,11.01
2019-05-05T13:08:08.731Z,11.01
2019-05-05T13:09:08.708Z,10.98
2019-05-05T13:10:08.690Z,10.87
2019-05-05T13:11:08.721Z,10.79
2019-05-05T13:12:08.668Z,10.60
2019-05-05T13:13:08.709Z,10.70